createdAt,value
2023-02-05T00:00:10.697Z,99.99
2023-02-05T00:01:10.510Z,99.99
2023-02-05T00:02:10.568Z,99.99
2023-02-05T00:03:10.461Z,99.99
2023-02-05T00:04:10.376Z,99.99
2023-02-05T00:05:10.343Z,99.67
2023-02-05T00:06:10.350Z,99.99
2023-02-05T00:07:10.293Z,99.72
2023-02-05T00:08:10.210Z,99.93
2023-02-05T00:09:10.174Z,99.93
2023-02-05T00:10:10.165Z,99.93
2023-02-05T00:11:10.118Z,99.99
2023-02-05T00:12:10.127Z,99.99
2023-02-05T00:13:10.006Z,99.99
2023-02-05T00:14:09.967Z,99.99
2023-02-05T00:15:09.932Z,99.99
2023-02-05T00:16:09.985Z,99.99
2023-02-05T00:17:09.858Z,99.99
2023-02-05T00:18:09.857Z,99.99
2023-02-05T00:19:09.759Z,99.99
2023-02-05T00:20:09.739Z,99.99
2023-02-05T00:21:09.674Z,99.99
2023-02-05T00:22:09.633Z,99.99
2023-02-05T00:23:09.595Z,99.99
2023-02-05T00:24:09.638Z,99.99
2023-02-05T00:25:09.509Z,99.99
2023-02-05T00:26:09.512Z,99.99
2023-02-05T00:27:09.451Z,99.99
2023-02-05T00:28:09.474Z,99.99
2023-02-05T00:29:09.362Z,99.99
2023-02-05T00:30:09.362Z,99.99
2023-02-05T00:31:09.329Z,99.99
2023-02-05T00:32:09.226Z,99.99
2023-02-05T00:33:09.194Z,99.99
2023-02-05T00:34:09.151Z,99.99
2023-02-05T00:35:09.114Z,99.99
2023-02-05T00:36:10.037Z,99.99
2023-02-05T00:37:09.038Z,99.99
2023-02-05T00:38:08.991Z,99.99
2023-02-05T00:39:08.944Z,99.99
2023-02-05T00:40:08.908Z,99.99
2023-02-05T00:41:08.862Z,99.99
2023-02-05T00:42:08.917Z,99.99
2023-02-05T00:43:08.780Z,99.99
2023-02-05T00:44:08.740Z,99.99
2023-02-05T00:45:08.725Z,99.99
2023-02-05T00:46:08.674Z,99.99
2023-02-05T00:47:08.629Z,99.99
2023-02-05T00:48:08.659Z,99.99
2023-02-05T00:49:08.534Z,99.99
2023-02-05T00:50:08.551Z,99.99
2023-02-05T00:51:08.463Z,99.99
2023-02-05T00:52:08.440Z,99.99
2023-02-05T00:53:08.365Z,99.99
2023-02-05T00:54:08.321Z,99.99
2023-02-05T00:55:08.344Z,99.99
2023-02-05T00:56:08.255Z,99.99
2023-02-05T00:57:08.206Z,99.99
2023-02-05T00:58:08.161Z,99.99
2023-02-05T00:59:08.120Z,99.99
2023-02-05T01:00:08.139Z,99.99
2023-02-05T01:01:08.075Z,99.99
2023-02-05T01:02:07.986Z,99.99
2023-02-05T01:03:07.962Z,99.99
2023-02-05T01:04:07.912Z,99.99
2023-02-05T01:05:07.880Z,99.99
2023-02-05T01:06:07.924Z,99.99
2023-02-05T01:07:07.792Z,99.99
2023-02-05T01:08:07.744Z,99.99
2023-02-05T01:09:07.705Z,99.99
2023-02-05T01:10:07.669Z,99.99
2023-02-05T01:11:07.639Z,99.99
2023-02-05T01:12:07.690Z,99.99
2023-02-05T01:13:07.563Z,99.99
2023-02-05T01:14:07.507Z,99.99
2023-02-05T01:15:07.475Z,99.99
2023-02-05T01:16:07.465Z,99.99
2023-02-05T01:17:07.389Z,99.99
2023-02-05T01:18:07.395Z,99.99
2023-02-05T01:19:07.300Z,99.99
2023-02-05T01:20:07.265Z,99.99
2023-02-05T01:21:07.232Z,99.99
2023-02-05T01:22:07.186Z,99.99
2023-02-05T01:23:07.134Z,99.99
2023-02-05T01:24:07.168Z,99.99
2023-02-05T01:25:07.054Z,99.99
2023-02-05T01:26:07.012Z,99.99
2023-02-05T01:27:06.974Z,99.99
2023-02-05T01:28:07.096Z,99.99
2023-02-05T01:29:06.924Z,99.99
2023-02-05T01:30:06.939Z,99.99
2023-02-05T01:31:06.895Z,99.99
2023-02-05T01:32:06.827Z,99.99
2023-02-05T01:33:06.750Z,99.99
2023-02-05T01:34:06.687Z,99.99
2023-02-05T01:35:06.652Z,99.99
2023-02-05T01:36:06.661Z,99.99
2023-02-05T01:37:06.575Z,99.99
2023-02-05T01:38:06.522Z,99.99
2023-02-05T01:39:06.467Z,99.99
2023-02-05T01:40:06.434Z,99.99
2023-02-05T01:41:06.387Z,99.99
2023-02-05T01:42:06.411Z,99.99
2023-02-05T01:43:06.303Z,99.99
2023-02-05T01:44:06.261Z,99.99
2023-02-05T01:45:06.213Z,99.99
2023-02-05T01:46:06.240Z,99.99
2023-02-05T01:47:06.138Z,99.99
2023-02-05T01:48:06.148Z,99.99
2023-02-05T01:49:06.050Z,99.99
2023-02-05T01:50:06.007Z,99.99
2023-02-05T01:51:05.984Z,99.99
2023-02-05T01:52:05.926Z,99.99
2023-02-05T01:53:05.888Z,99.99
2023-02-05T01:54:05.894Z,99.99
2023-02-05T01:55:05.804Z,99.99
2023-02-05T01:56:05.758Z,99.99
2023-02-05T01:57:05.721Z,99.99
2023-02-05T01:58:05.679Z,99.99
2023-02-05T01:59:05.637Z,99.99
2023-02-05T02:00:05.652Z,99.99
2023-02-05T02:01:05.601Z,99.99
2023-02-05T02:02:05.525Z,99.99
2023-02-05T02:03:05.519Z,99.99
2023-02-05T02:04:05.432Z,99.99
2023-02-05T02:05:05.438Z,99.99
2023-02-05T02:06:05.406Z,99.99
2023-02-05T02:07:05.306Z,99.99
2023-02-05T02:08:05.264Z,99.99
2023-02-05T02:09:05.219Z,99.99
2023-02-05T02:10:05.182Z,99.99
2023-02-05T02:11:05.143Z,99.99
2023-02-05T02:12:05.148Z,99.99
2023-02-05T02:13:05.051Z,99.99
2023-02-05T02:14:05.010Z,99.99
2023-02-05T02:15:05.000Z,99.99
2023-02-05T02:16:04.966Z,99.99
2023-02-05T02:17:04.892Z,99.99
2023-02-05T02:18:04.929Z,99.99
2023-02-05T02:19:04.816Z,99.99
2023-02-05T02:20:04.768Z,99.99
2023-02-05T02:21:04.734Z,99.99
2023-02-05T02:22:04.680Z,99.99
2023-02-05T02:23:04.641Z,99.99
2023-02-05T02:24:04.663Z,99.99
2023-02-05T02:25:04.574Z,99.99
2023-02-05T02:26:04.519Z,99.99
2023-02-05T02:27:04.487Z,99.99
2023-02-05T02:28:04.508Z,99.99
2023-02-05T02:29:04.395Z,99.99
2023-02-05T02:30:04.426Z,99.99
2023-02-05T02:31:04.417Z,99.99
2023-02-05T02:32:04.272Z,99.99
2023-02-05T02:33:04.258Z,99.99
2023-02-05T02:34:04.186Z,99.99
2023-02-05T02:35:04.141Z,99.99
2023-02-05T02:36:04.168Z,99.99
2023-02-05T02:37:04.062Z,99.99
2023-02-05T02:38:04.014Z,99.99
2023-02-05T02:39:03.983Z,99.99
2023-02-05T02:40:03.935Z,99.99
2023-02-05T02:41:03.897Z,99.99
2023-02-05T02:42:03.909Z,99.99
2023-02-05T02:43:03.812Z,99.99
2023-02-05T02:44:03.771Z,99.99
2023-02-05T02:45:03.754Z,99.99
2023-02-05T02:46:03.711Z,99.99
2023-02-05T02:47:03.660Z,99.99
2023-02-05T02:48:03.664Z,99.99
2023-02-05T02:49:03.588Z,99.99
2023-02-05T02:50:03.552Z,99.99
2023-02-05T02:51:03.487Z,99.99
2023-02-05T02:52:03.500Z,99.99
2023-02-05T02:53:03.397Z,99.99
2023-02-05T02:54:03.355Z,99.99
2023-02-05T02:55:03.319Z,99.99
2023-02-05T02:56:03.294Z,99.99
2023-02-05T02:57:03.295Z,99.99
2023-02-05T02:58:03.205Z,99.99
2023-02-05T02:59:03.151Z,99.99
2023-02-05T03:00:03.109Z,99.99
2023-02-05T03:01:03.124Z,99.99
2023-02-05T03:02:03.100Z,99.99
2023-02-05T03:03:02.991Z,99.99
2023-02-05T03:04:02.986Z,99.99
2023-02-05T03:05:02.902Z,99.99
2023-02-05T03:06:02.863Z,99.99
2023-02-05T03:07:02.880Z,99.99
2023-02-05T03:08:02.783Z,99.99
2023-02-05T03:09:02.736Z,99.99
2023-02-05T03:10:02.715Z,99.99
2023-02-05T03:11:02.651Z,99.99
2023-02-05T03:12:02.683Z,99.99
2023-02-05T03:13:02.573Z,99.99
2023-02-05T03:14:02.557Z,99.99
2023-02-05T03:15:02.561Z,99.99
2023-02-05T03:16:02.491Z,99.99
2023-02-05T03:17:02.469Z,99.99
2023-02-05T03:18:02.360Z,99.99
2023-02-05T03:19:02.333Z,99.99
2023-02-05T03:20:02.292Z,99.99
2023-02-05T03:21:02.237Z,99.99
2023-02-05T03:22:02.217Z,99.99
2023-02-05T03:23:02.237Z,99.99
2023-02-05T03:24:02.124Z,99.99
2023-02-05T03:25:02.073Z,99.99
2023-02-05T03:26:02.030Z,99.99
2023-02-05T03:27:01.987Z,99.99
2023-02-05T03:28:02.073Z,99.99
2023-02-05T03:29:01.958Z,99.99
2023-02-05T03:30:01.890Z,99.99
2023-02-05T03:31:01.850Z,99.99
2023-02-05T03:32:01.786Z,99.99
2023-02-05T03:33:01.744Z,99.99
2023-02-05T03:34:01.693Z,99.99
2023-02-05T03:35:01.750Z,99.99
2023-02-05T03:36:01.619Z,99.99
2023-02-05T03:37:01.596Z,99.99
2023-02-05T03:38:01.579Z,99.99
2023-02-05T03:39:01.492Z,99.99
2023-02-05T03:40:01.458Z,99.99
2023-02-05T03:41:01.465Z,99.99
2023-02-05T03:42:01.372Z,99.99
2023-02-05T03:43:01.325Z,99.99
2023-02-05T03:44:01.289Z,99.99
2023-02-05T03:45:01.243Z,99.99
2023-02-05T03:46:01.278Z,99.99
2023-02-05T03:47:01.218Z,99.99
2023-02-05T03:48:01.185Z,99.99
2023-02-05T03:49:01.080Z,99.99
2023-02-05T03:50:01.039Z,99.99
2023-02-05T03:51:00.992Z,99.99
2023-02-05T03:52:00.957Z,99.99
2023-02-05T03:53:00.916Z,99.99
2023-02-05T03:54:00.935Z,99.99
2023-02-05T03:55:00.838Z,99.99
2023-02-05T03:56:00.790Z,99.99
2023-02-05T03:57:00.749Z,99.99
2023-02-05T03:58:00.700Z,99.99
2023-02-05T03:59:00.734Z,99.99
2023-02-05T04:00:00.618Z,99.99
2023-02-05T04:01:00.616Z,99.99
2023-02-05T04:02:00.575Z,99.99
2023-02-05T04:03:00.496Z,99.99
2023-02-05T04:04:00.452Z,99.99
2023-02-05T04:05:00.489Z,99.99
2023-02-05T04:06:00.382Z,99.99
2023-02-05T04:07:00.327Z,99.99
2023-02-05T04:08:00.281Z,99.84
2023-02-05T04:09:00.248Z,99.99
2023-02-05T04:10:00.224Z,99.99
2023-02-05T04:11:00.252Z,99.95
2023-02-05T04:12:00.121Z,99.99
2023-02-05T04:13:00.099Z,99.99
2023-02-05T04:14:00.040Z,99.99
2023-02-05T04:15:00.008Z,99.99
2023-02-05T04:15:59.954Z,99.99
2023-02-05T04:16:59.961Z,99.99
2023-02-05T04:17:59.871Z,99.99
2023-02-05T04:18:59.828Z,99.84
2023-02-05T04:19:59.862Z,99.95
2023-02-05T04:20:59.746Z,99.99
2023-02-05T04:21:59.700Z,99.99
2023-02-05T04:22:59.668Z,99.84
2023-02-05T04:23:59.671Z,99.99
2023-02-05T04:24:59.587Z,99.84
2023-02-05T04:25:59.588Z,99.99
2023-02-05T04:26:59.509Z,99.73
2023-02-05T04:27:59.541Z,99.84
2023-02-05T04:28:59.417Z,99.99
2023-02-05T04:29:59.386Z,99.99
2023-02-05T04:30:59.444Z,99.99
2023-02-05T04:31:59.296Z,99.99
2023-02-05T04:32:59.250Z,99.99
2023-02-05T04:33:59.213Z,99.99
2023-02-05T04:34:59.178Z,99.99
2023-02-05T04:35:59.197Z,99.99
2023-02-05T04:36:59.088Z,99.99
2023-02-05T04:37:59.044Z,99.99
2023-02-05T04:38:59.003Z,99.99
2023-02-05T04:39:58.966Z,99.99
2023-02-05T04:40:58.924Z,99.99
2023-02-05T04:41:58.958Z,99.99
2023-02-05T04:42:58.839Z,99.99
2023-02-05T04:43:58.797Z,99.99
2023-02-05T04:44:58.755Z,99.99
2023-02-05T04:45:58.736Z,99.99
2023-02-05T04:46:58.739Z,99.99
2023-02-05T04:47:58.643Z,99.99
2023-02-05T04:48:58.604Z,99.99
2023-02-05T04:49:58.552Z,99.99
2023-02-05T04:50:58.510Z,99.99
2023-02-05T04:51:58.481Z,99.99
2023-02-05T04:52:58.487Z,99.99
2023-02-05T04:53:58.393Z,99.99
2023-02-05T04:54:58.346Z,99.99
2023-02-05T04:55:58.320Z,99.99
2023-02-05T04:56:58.280Z,99.99
2023-02-05T04:57:58.228Z,99.99
2023-02-05T04:58:58.240Z,99.99
2023-02-05T04:59:58.138Z,99.99
2023-02-05T05:00:58.126Z,99.99
2023-02-05T05:01:58.060Z,99.99
2023-02-05T05:02:58.028Z,99.75
2023-02-05T05:03:57.986Z,99.75
2023-02-05T05:04:57.995Z,99.75
2023-02-05T05:05:57.893Z,99.54
2023-02-05T05:06:57.857Z,99.32
2023-02-05T05:07:57.819Z,99.58
2023-02-05T05:08:57.792Z,99.48
2023-02-05T05:09:57.732Z,98.94
2023-02-05T05:10:57.740Z,98.94
2023-02-05T05:11:57.644Z,99.79
2023-02-05T05:12:57.610Z,99.69
2023-02-05T05:13:57.577Z,99.79
2023-02-05T05:14:57.521Z,98.94
2023-02-05T05:15:57.509Z,99.05
2023-02-05T05:16:57.498Z,99.37
2023-02-05T05:17:57.411Z,99.58
2023-02-05T05:18:57.355Z,99.79
2023-02-05T05:19:59.870Z,99.99
2023-02-05T05:20:57.284Z,99.99
2023-02-05T05:21:57.244Z,99.99
2023-02-05T05:22:57.251Z,99.99
2023-02-05T05:23:57.153Z,99.99
2023-02-05T05:24:57.125Z,99.99
2023-02-05T05:25:57.076Z,99.99
2023-02-05T05:26:57.034Z,99.99
2023-02-05T05:27:57.025Z,99.99
2023-02-05T05:28:57.009Z,99.99
2023-02-05T05:29:56.906Z,99.99
2023-02-05T05:30:56.887Z,99.99
2023-02-05T05:31:56.839Z,99.99
2023-02-05T05:32:56.790Z,99.99
2023-02-05T05:33:56.740Z,99.99
2023-02-05T05:34:56.763Z,99.99
2023-02-05T05:35:56.655Z,99.85
2023-02-05T05:36:56.621Z,99.99
2023-02-05T05:37:56.578Z,99.90
2023-02-05T05:38:56.538Z,99.99
2023-02-05T05:39:56.496Z,99.99
2023-02-05T05:40:56.509Z,99.99
2023-02-05T05:41:56.413Z,99.99
2023-02-05T05:42:56.375Z,99.99
2023-02-05T05:43:56.328Z,99.99
2023-02-05T05:44:56.289Z,99.99
2023-02-05T05:45:56.301Z,99.99
2023-02-05T05:46:56.253Z,99.99
2023-02-05T05:47:56.161Z,99.99
2023-02-05T05:48:56.135Z,99.99
2023-02-05T05:49:56.082Z,99.99
2023-02-05T05:50:56.040Z,99.99
2023-02-05T05:51:56.059Z,99.99
2023-02-05T05:52:55.957Z,99.99
2023-02-05T05:53:55.919Z,99.91
2023-02-05T05:54:55.887Z,99.99
2023-02-05T05:55:55.834Z,99.99
2023-02-05T05:56:55.843Z,99.99
2023-02-05T05:57:55.754Z,99.99
2023-02-05T05:58:55.761Z,99.99
2023-02-05T05:59:55.666Z,99.99
2023-02-05T06:00:55.627Z,99.99
2023-02-05T06:01:55.585Z,99.99
2023-02-05T06:02:55.616Z,99.99
2023-02-05T06:03:55.502Z,99.98
2023-02-05T06:04:55.459Z,99.99
2023-02-05T06:05:55.423Z,99.99
2023-02-05T06:06:55.380Z,99.99
2023-02-05T06:07:55.335Z,99.82
2023-02-05T06:08:55.348Z,99.99
2023-02-05T06:09:55.271Z,99.99
2023-02-05T06:10:55.220Z,99.99
2023-02-05T06:11:55.178Z,99.99
2023-02-05T06:12:55.134Z,99.99
2023-02-05T06:13:55.143Z,99.99
2023-02-05T06:14:55.052Z,99.95
2023-02-05T06:15:55.031Z,99.95
2023-02-05T06:16:54.973Z,99.95
2023-02-05T06:17:54.933Z,99.67
2023-02-05T06:18:54.884Z,99.31
2023-02-05T06:19:54.910Z,99.10
2023-02-05T06:20:54.805Z,99.41
2023-02-05T06:21:54.768Z,98.79
2023-02-05T06:22:54.727Z,99.21
2023-02-05T06:23:54.685Z,99.10
2023-02-05T06:24:54.701Z,99.16
2023-02-05T06:25:54.598Z,99.05
2023-02-05T06:26:54.556Z,99.16
2023-02-05T06:27:54.540Z,99.27
2023-02-05T06:28:54.480Z,99.16
2023-02-05T06:29:54.455Z,98.95
2023-02-05T06:30:54.492Z,99.16
2023-02-05T06:31:54.407Z,99.11
2023-02-05T06:32:54.317Z,99.11
2023-02-05T06:33:54.271Z,99.05
2023-02-05T06:34:54.232Z,98.95
2023-02-05T06:35:54.196Z,99.05
2023-02-05T06:36:54.212Z,98.69
2023-02-05T06:37:54.111Z,99.43
2023-02-05T06:38:54.068Z,99.22
2023-02-05T06:39:54.034Z,98.69
2023-02-05T06:40:53.995Z,98.55
2023-02-05T06:41:53.950Z,98.75
2023-02-05T06:42:53.962Z,99.18
2023-02-05T06:43:53.868Z,98.65
2023-02-05T06:44:53.831Z,98.86
2023-02-05T06:45:53.792Z,98.65
2023-02-05T06:46:53.748Z,98.23
2023-02-05T06:47:53.711Z,98.33
2023-02-05T06:48:53.719Z,98.08
2023-02-05T06:49:53.631Z,98.44
2023-02-05T06:50:53.588Z,98.29
2023-02-05T06:51:53.547Z,98.29
2023-02-05T06:52:53.513Z,98.08
2023-02-05T06:53:53.478Z,98.39
2023-02-05T06:54:53.506Z,98.39
2023-02-05T06:55:53.388Z,98.08
2023-02-05T06:56:53.350Z,98.08
2023-02-05T06:57:53.312Z,97.51
2023-02-05T06:58:53.270Z,97.41
2023-02-05T06:59:53.227Z,97.30
2023-02-05T07:00:53.254Z,97.41
2023-02-05T07:01:53.172Z,98.03
2023-02-05T07:02:53.178Z,97.93
2023-02-05T07:03:53.062Z,97.82
2023-02-05T07:04:53.020Z,97.51
2023-02-05T07:05:52.984Z,97.93
2023-02-05T07:06:52.996Z,97.09
2023-02-05T07:07:52.906Z,96.88
2023-02-05T07:08:52.870Z,96.88
2023-02-05T07:09:52.829Z,96.45
2023-02-05T07:10:52.797Z,96.77
2023-02-05T07:11:52.748Z,96.56
2023-02-05T07:12:52.758Z,97.72
2023-02-05T07:13:52.746Z,97.09
2023-02-05T07:14:52.621Z,97.30
2023-02-05T07:15:52.615Z,97.67
2023-02-05T07:16:52.540Z,97.88
2023-02-05T07:17:52.500Z,97.47
2023-02-05T07:18:52.517Z,97.36
2023-02-05T07:19:52.433Z,96.94
2023-02-05T07:20:52.382Z,96.31
2023-02-05T07:21:52.349Z,96.73
2023-02-05T07:22:52.311Z,96.41
2023-02-05T07:23:52.267Z,96.41
2023-02-05T07:24:52.271Z,96.41
2023-02-05T07:25:52.194Z,96.51
2023-02-05T07:26:52.153Z,96.62
2023-02-05T07:27:52.139Z,96.51
2023-02-05T07:28:52.066Z,96.58
2023-02-05T07:29:52.037Z,96.69
2023-02-05T07:30:52.092Z,96.58
2023-02-05T07:31:52.004Z,96.69
2023-02-05T07:32:51.931Z,97.53
2023-02-05T07:33:51.873Z,97.00
2023-02-05T07:34:51.846Z,97.06
2023-02-05T07:35:51.804Z,97.06
2023-02-05T07:36:51.800Z,97.38
2023-02-05T07:37:51.701Z,97.38
2023-02-05T07:38:51.669Z,97.12
2023-02-05T07:39:51.621Z,97.33
2023-02-05T07:40:51.584Z,97.12
2023-02-05T07:41:51.598Z,97.33
2023-02-05T07:42:51.517Z,97.23
2023-02-05T07:43:51.453Z,97.44
2023-02-05T07:44:51.423Z,97.08
2023-02-05T07:45:51.382Z,96.87
2023-02-05T07:46:51.374Z,96.55
2023-02-05T07:47:51.415Z,96.93
2023-02-05T07:48:51.259Z,96.51
2023-02-05T07:49:51.212Z,96.25
2023-02-05T07:50:51.242Z,96.25
2023-02-05T07:51:51.142Z,95.94
2023-02-05T07:52:51.098Z,95.31
2023-02-05T07:53:51.114Z,95.52
2023-02-05T07:54:51.021Z,95.17
2023-02-05T07:55:50.982Z,95.27
2023-02-05T07:56:50.945Z,94.91
2023-02-05T07:57:50.904Z,94.70
2023-02-05T07:58:50.999Z,93.76
2023-02-05T07:59:50.822Z,93.65
2023-02-05T08:00:50.873Z,92.82
2023-02-05T08:01:50.754Z,91.98
2023-02-05T08:02:50.708Z,91.24
2023-02-05T08:03:50.775Z,91.14
2023-02-05T08:04:50.680Z,92.08
2023-02-05T08:05:50.589Z,91.24
2023-02-05T08:06:50.546Z,92.25
2023-02-05T08:07:50.538Z,92.35
2023-02-05T08:08:50.475Z,92.31
2023-02-05T08:09:50.493Z,90.95
2023-02-05T08:10:50.395Z,89.59
2023-02-05T08:11:50.355Z,88.54
2023-02-05T08:12:50.325Z,87.92
2023-02-05T08:13:50.275Z,88.12
2023-02-05T08:14:50.234Z,87.39
2023-02-05T08:15:50.258Z,87.18
2023-02-05T08:16:50.160Z,87.01
2023-02-05T08:17:50.122Z,87.01
2023-02-05T08:18:50.087Z,87.43
2023-02-05T08:19:50.038Z,87.33
2023-02-05T08:20:50.083Z,88.02
2023-02-05T08:21:49.963Z,88.12
2023-02-05T08:22:49.937Z,87.71
2023-02-05T08:23:49.889Z,87.81
2023-02-05T08:24:49.863Z,88.34
2023-02-05T08:25:49.813Z,88.02
2023-02-05T08:26:49.831Z,87.29
2023-02-05T08:27:49.756Z,87.04
2023-02-05T08:28:49.691Z,86.98
2023-02-05T08:29:49.679Z,86.41
2023-02-05T08:30:49.648Z,86.41
2023-02-05T08:31:49.657Z,85.36
2023-02-05T08:32:49.540Z,85.89
2023-02-05T08:33:49.494Z,86.52
2023-02-05T08:34:49.466Z,87.35
2023-02-05T08:35:49.428Z,87.15
2023-02-05T08:36:49.439Z,85.99
2023-02-05T08:37:49.344Z,86.06
2023-02-05T08:38:49.310Z,85.01
2023-02-05T08:39:49.260Z,84.53
2023-02-05T08:40:49.222Z,85.26
2023-02-05T08:41:49.188Z,84.63
2023-02-05T08:42:49.211Z,86.27
2023-02-05T08:43:49.125Z,85.22
2023-02-05T08:44:49.074Z,84.91
2023-02-05T08:45:49.038Z,83.97
2023-02-05T08:46:50.410Z,83.34
2023-02-05T08:47:49.023Z,83.76
2023-02-05T08:48:48.909Z,83.76
2023-02-05T08:49:48.891Z,83.72
2023-02-05T08:50:48.835Z,82.99
2023-02-05T08:51:48.797Z,83.51
2023-02-05T08:52:48.819Z,83.30
2023-02-05T08:53:48.722Z,83.20
2023-02-05T08:54:48.679Z,83.09
2023-02-05T08:55:48.662Z,82.78
2023-02-05T08:56:48.605Z,82.99
2023-02-05T08:57:48.627Z,82.67
2023-02-05T08:58:48.546Z,82.67
2023-02-05T08:59:48.491Z,82.67
2023-02-05T09:00:48.492Z,83.20
2023-02-05T09:01:48.413Z,82.84
2023-02-05T09:02:48.381Z,82.01
2023-02-05T09:03:48.419Z,81.49
2023-02-05T09:04:48.303Z,81.76
2023-02-05T09:05:48.291Z,81.45
2023-02-05T09:06:48.228Z,81.35
2023-02-05T09:07:48.179Z,80.79
2023-02-05T09:08:48.146Z,79.57
2023-02-05T09:09:48.193Z,79.88
2023-02-05T09:10:48.074Z,79.57
2023-02-05T09:11:48.038Z,79.92
2023-02-05T09:12:47.985Z,79.82
2023-02-05T09:13:47.947Z,79.57
2023-02-05T09:14:47.964Z,79.88
2023-02-05T09:15:48.706Z,80.47
2023-02-05T09:16:47.868Z,80.68
2023-02-05T09:17:47.800Z,80.27
2023-02-05T09:18:47.762Z,79.43
2023-02-05T09:19:47.813Z,78.91
2023-02-05T09:20:47.686Z,79.29
2023-02-05T09:21:47.642Z,79.05
2023-02-05T09:22:47.608Z,78.25
2023-02-05T09:23:47.568Z,78.77
2023-02-05T09:24:47.530Z,77.51
2023-02-05T09:25:47.549Z,78.35
2023-02-05T09:26:47.453Z,78.14
2023-02-05T09:27:47.465Z,78.66
2023-02-05T09:28:47.382Z,79.25
2023-02-05T09:29:47.342Z,78.42
2023-02-05T09:30:47.475Z,77.80
2023-02-05T09:31:47.371Z,77.48
2023-02-05T09:32:47.228Z,76.68
2023-02-05T09:33:47.190Z,77.20
2023-02-05T09:34:47.150Z,76.79
2023-02-05T09:35:47.117Z,76.89
2023-02-05T09:36:47.134Z,77.83
2023-02-05T09:37:47.038Z,78.77
2023-02-05T09:38:46.993Z,77.94
2023-02-05T09:40:46.924Z,77.55
2023-02-05T09:41:46.927Z,77.86
2023-02-05T09:42:46.932Z,76.61
2023-02-05T09:43:46.812Z,76.30
2023-02-05T09:44:46.773Z,76.12
2023-02-05T09:45:46.767Z,76.30
2023-02-05T09:46:46.689Z,76.43
2023-02-05T09:47:46.714Z,77.13
2023-02-05T09:48:46.618Z,77.66
2023-02-05T09:49:46.588Z,77.34
2023-02-05T09:50:46.542Z,77.41
2023-02-05T09:51:46.508Z,77.37
2023-02-05T09:52:46.465Z,77.41
2023-02-05T09:53:46.481Z,77.79
2023-02-05T09:54:46.386Z,77.41
2023-02-05T09:55:46.366Z,77.58
2023-02-05T09:56:46.327Z,78.20
2023-02-05T09:57:46.278Z,77.89
2023-02-05T09:58:46.288Z,77.55
2023-02-05T09:59:46.292Z,77.58
2023-02-05T10:00:46.168Z,77.17
2023-02-05T10:01:46.172Z,77.06
2023-02-05T10:02:46.089Z,77.62
2023-02-05T10:03:46.048Z,78.00
2023-02-05T10:04:46.020Z,77.48
2023-02-05T10:05:46.032Z,77.55
2023-02-05T10:06:45.944Z,77.86
2023-02-05T10:07:45.895Z,77.44
2023-02-05T10:08:45.894Z,77.83
2023-02-05T10:09:45.832Z,77.72
2023-02-05T10:10:45.780Z,77.20
2023-02-05T10:11:45.814Z,75.78
2023-02-05T10:12:45.858Z,75.88
2023-02-05T10:13:45.833Z,76.02
2023-02-05T10:14:47.306Z,76.51
2023-02-05T10:15:45.750Z,76.96
2023-02-05T10:16:45.608Z,76.23
2023-02-05T10:17:46.150Z,75.15
2023-02-05T10:18:45.514Z,75.50
2023-02-05T10:19:45.453Z,75.40
2023-02-05T10:20:45.429Z,75.88
2023-02-05T10:21:45.381Z,75.74
2023-02-05T10:22:45.354Z,75.85
2023-02-05T10:23:45.365Z,74.88
2023-02-05T10:24:45.278Z,74.25
2023-02-05T10:25:45.807Z,74.25
2023-02-05T10:26:45.191Z,74.57
2023-02-05T10:27:45.200Z,74.15
2023-02-05T10:28:45.204Z,73.18
2023-02-05T10:29:45.086Z,73.07
2023-02-05T10:30:45.124Z,73.80
2023-02-05T10:31:45.025Z,73.28
2023-02-05T10:32:44.981Z,72.34
2023-02-05T10:33:44.938Z,71.93
2023-02-05T10:34:44.958Z,71.65
2023-02-05T10:35:44.869Z,73.60
2023-02-05T10:36:44.857Z,72.76
2023-02-05T10:37:45.139Z,70.92
2023-02-05T10:38:44.879Z,69.89
2023-02-05T10:39:44.805Z,70.12
2023-02-05T10:40:44.676Z,70.95
2023-02-05T10:41:44.639Z,71.89
2023-02-05T10:42:44.616Z,72.00
2023-02-05T10:43:44.870Z,71.86
2023-02-05T10:44:44.565Z,71.97
2023-02-05T10:45:44.552Z,72.24
2023-02-05T10:46:44.463Z,71.51
2023-02-05T10:47:44.416Z,70.89
2023-02-05T10:48:44.386Z,69.74
2023-02-05T10:49:45.145Z,71.41
2023-02-05T10:50:44.315Z,71.10
2023-02-05T10:51:44.351Z,69.82
2023-02-05T10:52:44.904Z,69.71
2023-02-05T10:53:44.226Z,70.13
2023-02-05T10:54:44.231Z,69.92
2023-02-05T10:55:44.143Z,68.99
2023-02-05T10:56:44.104Z,69.71
2023-02-05T10:57:44.046Z,69.06
2023-02-05T10:58:44.127Z,69.48
2023-02-05T10:59:44.167Z,69.17
2023-02-05T11:00:44.006Z,70.00
2023-02-05T11:01:43.953Z,69.89
2023-02-05T11:02:43.910Z,69.03
2023-02-05T11:03:43.827Z,68.20
2023-02-05T11:04:43.800Z,68.72
2023-02-05T11:05:43.807Z,68.69
2023-02-05T11:06:44.519Z,68.38
2023-02-05T11:07:43.715Z,68.59
2023-02-05T11:08:43.721Z,68.17
2023-02-05T11:09:43.865Z,67.44
2023-02-05T11:10:43.589Z,66.99
2023-02-05T11:11:44.128Z,66.61
2023-02-05T11:12:43.509Z,66.12
2023-02-05T11:13:44.407Z,66.44
2023-02-05T11:14:43.426Z,66.85
2023-02-05T11:15:43.526Z,66.85
2023-02-05T11:16:43.366Z,66.33
2023-02-05T11:17:43.465Z,66.22
2023-02-05T11:18:43.280Z,66.44
2023-02-05T11:19:43.449Z,66.64
2023-02-05T11:20:43.209Z,66.78
2023-02-05T11:21:43.281Z,66.99
2023-02-05T11:22:43.133Z,67.27
2023-02-05T11:23:44.153Z,67.58
2023-02-05T11:24:43.078Z,66.82
2023-02-05T11:25:43.348Z,66.47
2023-02-05T11:26:42.989Z,67.20
2023-02-05T11:27:42.972Z,67.10
2023-02-05T11:28:42.909Z,66.17
2023-02-05T11:29:43.167Z,65.16
2023-02-05T11:30:51.806Z,65.81
2023-02-05T11:31:42.881Z,66.64
2023-02-05T11:32:42.781Z,66.75
2023-02-05T11:33:42.731Z,65.99
2023-02-05T11:34:42.712Z,66.09
2023-02-05T11:35:42.760Z,66.20
2023-02-05T11:36:42.630Z,66.06
2023-02-05T11:37:42.584Z,65.72
2023-02-05T11:38:42.617Z,64.92
2023-02-05T11:39:42.526Z,64.09
2023-02-05T11:40:42.480Z,65.23
2023-02-05T11:41:42.513Z,65.03
2023-02-05T11:42:42.463Z,65.96
2023-02-05T11:43:42.367Z,65.16
2023-02-05T11:44:42.353Z,65.06
2023-02-05T11:45:42.306Z,64.85
2023-02-05T11:46:42.377Z,65.44
2023-02-05T11:47:42.295Z,64.61
2023-02-05T11:48:42.277Z,64.72
2023-02-05T11:49:42.153Z,64.89
2023-02-05T11:50:42.124Z,64.79
2023-02-05T11:51:42.100Z,65.23
2023-02-05T11:52:42.130Z,65.65
2023-02-05T11:53:42.111Z,64.92
2023-02-05T11:54:42.055Z,64.61
2023-02-05T11:55:41.954Z,64.40
2023-02-05T11:56:42.126Z,64.95
2023-02-05T11:57:41.969Z,65.26
2023-02-05T11:58:42.434Z,65.03
2023-02-05T11:59:41.855Z,65.75
2023-02-05T12:00:41.824Z,65.96
2023-02-05T12:01:41.739Z,65.23
2023-02-05T12:02:41.745Z,65.00
2023-02-05T12:03:41.692Z,64.92
2023-02-05T12:04:42.421Z,64.51
2023-02-05T12:05:41.648Z,64.48
2023-02-05T12:06:41.722Z,64.61
2023-02-05T12:07:41.517Z,65.03
2023-02-05T12:08:41.578Z,65.26
2023-02-05T12:09:41.440Z,64.64
2023-02-05T12:10:41.412Z,65.08
2023-02-05T12:11:41.464Z,65.94
2023-02-05T12:12:41.337Z,65.84
2023-02-05T12:13:41.413Z,66.60
2023-02-05T12:14:41.280Z,66.71
2023-02-05T12:15:41.216Z,66.60
2023-02-05T12:16:41.182Z,67.25
2023-02-05T12:17:41.223Z,66.91
2023-02-05T12:18:41.125Z,67.05
2023-02-05T12:19:41.084Z,67.05
2023-02-05T12:20:41.052Z,67.33
2023-02-05T12:21:41.002Z,67.12
2023-02-05T12:22:41.024Z,67.33
2023-02-05T12:23:40.931Z,68.57
2023-02-05T12:24:40.891Z,68.26
2023-02-05T12:25:42.579Z,67.64
2023-02-05T12:26:40.822Z,66.81
2023-02-05T12:27:40.836Z,67.54
2023-02-05T12:28:40.735Z,67.71
2023-02-05T12:29:40.716Z,68.33
2023-02-05T12:30:40.775Z,67.61
2023-02-05T12:31:40.684Z,67.30
2023-02-05T12:32:40.639Z,67.58
2023-02-05T12:33:40.562Z,67.19
2023-02-05T12:34:40.510Z,67.50
2023-02-05T12:35:40.484Z,66.88
2023-02-05T12:36:40.440Z,66.91
2023-02-05T12:37:40.399Z,67.33
2023-02-05T12:38:40.422Z,67.43
2023-02-05T12:39:40.330Z,67.67
2023-02-05T12:40:40.288Z,68.26
2023-02-05T12:41:42.596Z,68.47
2023-02-05T12:42:40.204Z,68.47
2023-02-05T12:43:40.170Z,68.47
2023-02-05T12:44:40.209Z,67.85
2023-02-05T12:45:40.145Z,67.85
2023-02-05T12:46:40.056Z,68.57
2023-02-05T12:47:40.029Z,68.78
2023-02-05T12:48:39.977Z,68.16
2023-02-05T12:49:42.967Z,68.44
2023-02-05T12:50:39.956Z,68.68
2023-02-05T12:51:39.872Z,68.68
2023-02-05T12:52:39.840Z,68.54